createdAt,value
2019-06-20T00:01:20.150Z,23.07
2019-06-20T00:03:48.601Z,24.35
2019-06-20T00:06:17.122Z,28.98
2019-06-20T00:08:45.579Z,25.12
2019-06-20T00:11:14.033Z,27.17
2019-06-20T00:13:42.475Z,23.27
2019-06-20T00:16:10.921Z,25.88
2019-06-20T00:18:39.389Z,27.25
2019-06-20T00:21:07.839Z,27.32
2019-06-20T00:23:36.297Z,28.35
2019-06-20T00:26:04.740Z,34.43
2019-06-20T00:28:33.184Z,31.57
2019-06-20T00:31:02.015Z,26.50
2019-06-20T00:33:30.460Z,32.73
2019-06-20T00:35:59.153Z,33.80
2019-06-20T00:38:27.591Z,28.92
2019-06-20T00:40:56.526Z,37.10
2019-06-20T00:43:24.956Z,39.13
2019-06-20T00:45:53.399Z,35.58
2019-06-20T00:48:21.859Z,40.67
2019-06-20T00:50:50.295Z,38.45
2019-06-20T00:53:19.175Z,37.38
2019-06-20T00:55:47.669Z,40.85
2019-06-20T00:58:16.133Z,39.30
2019-06-20T01:00:44.585Z,43.52
2019-06-20T01:03:13.027Z,43.65
2019-06-20T01:05:41.481Z,50.00
2019-06-20T01:08:10.016Z,42.58
2019-06-20T01:10:38.481Z,45.08
2019-06-20T01:13:06.927Z,44.63
2019-06-20T01:15:35.452Z,43.02
2019-06-20T01:18:03.982Z,43.85
2019-06-20T01:20:32.430Z,41.83
2019-06-20T01:23:00.903Z,50.33
2019-06-20T01:25:40.646Z,45.73
2019-06-20T01:28:09.222Z,45.75
2019-06-20T01:30:37.804Z,41.80
2019-06-20T01:33:06.635Z,41.63
2019-06-20T01:35:35.222Z,44.40
2019-06-20T01:38:05.229Z,40.80
2019-06-20T01:40:33.663Z,40.10
2019-06-20T01:43:02.559Z,39.78
2019-06-20T01:45:31.002Z,43.98
2019-06-20T01:47:59.551Z,38.60
2019-06-20T01:50:28.004Z,43.23
2019-06-20T01:52:56.448Z,42.58
2019-06-20T01:55:24.916Z,38.88
2019-06-20T01:57:53.347Z,44.30
2019-06-20T02:00:30.976Z,43.80
2019-06-20T02:02:59.446Z,47.53
2019-06-20T02:05:27.954Z,49.08
2019-06-20T02:08:15.323Z,46.20
2019-06-20T02:10:43.770Z,50.48
2019-06-20T02:13:18.298Z,48.05
2019-06-20T02:15:46.751Z,53.52
2019-06-20T02:18:15.358Z,59.67
2019-06-20T02:20:53.332Z,55.45
2019-06-20T02:23:23.412Z,53.15
2019-06-20T02:25:52.309Z,53.08
2019-06-20T02:28:21.774Z,67.62
2019-06-20T02:30:59.493Z,60.88
2019-06-20T02:33:27.945Z,67.22
2019-06-20T02:35:56.406Z,66.15
2019-06-20T02:38:24.861Z,70.92
2019-06-20T02:40:55.012Z,69.22
2019-06-20T02:43:23.855Z,67.20
2019-06-20T02:45:52.445Z,70.95
2019-06-20T02:48:22.905Z,75.65
2019-06-20T02:50:51.121Z,76.00
2019-06-20T02:53:19.571Z,71.80
2019-06-20T02:55:48.030Z,76.12
2019-06-20T02:58:16.489Z,79.30
2019-06-20T03:00:50.991Z,63.48
2019-06-20T03:03:19.450Z,70.92
2019-06-20T03:05:47.900Z,71.77
2019-06-20T03:08:16.356Z,65.42
2019-06-20T03:10:44.823Z,73.80
2019-06-20T03:13:13.362Z,84.83
2019-06-20T03:15:41.840Z,76.07
2019-06-20T03:18:10.305Z,72.97
2019-06-20T03:20:38.738Z,80.57
2019-06-20T03:23:07.197Z,76.42
2019-06-20T03:25:35.730Z,77.53
2019-06-20T03:28:04.235Z,69.65
2019-06-20T03:30:32.771Z,74.42
2019-06-20T03:33:01.239Z,74.22
2019-06-20T03:35:29.752Z,79.30
2019-06-20T03:37:59.746Z,79.12
2019-06-20T03:40:28.270Z,74.15
2019-06-20T03:42:56.712Z,83.17
2019-06-20T03:45:25.168Z,79.77
2019-06-20T03:47:53.619Z,84.52
2019-06-20T03:50:22.110Z,87.88
2019-06-20T03:52:53.776Z,85.90
2019-06-20T03:55:22.278Z,85.30
2019-06-20T03:57:50.736Z,92.17
2019-06-20T04:00:22.175Z,87.17
2019-06-20T04:02:50.642Z,82.42
2019-06-20T04:05:19.093Z,102.20
2019-06-20T04:07:47.603Z,90.55
2019-06-20T04:10:19.040Z,89.92
2019-06-20T04:12:47.487Z,90.22
2019-06-20T04:15:19.465Z,86.53
2019-06-20T04:17:46.166Z,97.30
2019-06-20T04:20:14.825Z,89.72
2019-06-20T04:22:44.578Z,107.52
2019-06-20T04:25:13.124Z,105.37
2019-06-20T04:27:41.731Z,88.97
2019-06-20T04:30:10.371Z,101.45
2019-06-20T04:32:38.940Z,93.47
2019-06-20T04:35:07.598Z,80.50
2019-06-20T04:37:36.048Z,84.15
2019-06-20T04:40:06.172Z,91.00
2019-06-20T04:42:35.182Z,75.52
2019-06-20T04:45:06.336Z,85.75
2019-06-20T04:47:34.792Z,85.30
2019-06-20T04:50:04.432Z,72.80
2019-06-20T04:52:32.945Z,73.52
2019-06-20T04:55:03.530Z,77.65
2019-06-20T04:57:32.032Z,79.40
2019-06-20T05:00:03.040Z,78.02
2019-06-20T05:02:34.407Z,76.35
2019-06-20T05:05:04.977Z,65.22
2019-06-20T05:07:33.547Z,66.85
2019-06-20T05:10:02.126Z,64.17
2019-06-20T05:12:30.668Z,62.30
2019-06-20T05:14:59.183Z,71.47
2019-06-20T05:17:27.724Z,62.43
2019-06-20T05:19:58.860Z,73.10
2019-06-20T05:22:27.369Z,57.75
2019-06-20T05:24:55.823Z,62.83
2019-06-20T05:27:24.267Z,55.17
2019-06-20T05:29:52.786Z,54.88
2019-06-20T05:32:21.236Z,56.55
2019-06-20T05:34:49.710Z,57.23
2019-06-20T05:37:18.215Z,53.33
2019-06-20T05:39:46.668Z,56.00
2019-06-20T05:42:15.463Z,48.15
2019-06-20T05:44:43.908Z,48.38
2019-06-20T05:47:14.047Z,55.43
2019-06-20T05:49:42.683Z,51.83
2019-06-20T05:52:11.144Z,46.85
2019-06-20T05:54:42.609Z,50.63
2019-06-20T05:57:12.253Z,49.45
2019-06-20T05:59:40.720Z,47.17
2019-06-20T06:02:09.175Z,56.28
2019-06-20T06:04:37.725Z,46.95
2019-06-20T06:07:06.234Z,44.70
2019-06-20T06:09:34.736Z,45.80
2019-06-20T06:12:03.218Z,45.83
2019-06-20T06:14:31.693Z,40.60
2019-06-20T06:17:00.214Z,41.10
2019-06-20T06:19:28.655Z,32.13
2019-06-20T06:21:57.092Z,47.20
2019-06-20T06:24:25.635Z,40.45
2019-06-20T06:26:54.069Z,39.42
2019-06-20T06:29:22.527Z,40.48
2019-06-20T06:31:50.979Z,40.80
2019-06-20T06:34:21.950Z,37.73
2019-06-20T06:36:49.619Z,32.23
2019-06-20T06:39:18.123Z,35.85
2019-06-20T06:41:47.586Z,39.45
2019-06-20T06:44:16.039Z,35.92
2019-06-20T06:46:53.234Z,33.50
2019-06-20T06:49:14.685Z,37.90
2019-06-20T06:51:43.186Z,44.23
2019-06-20T06:54:11.681Z,36.80
2019-06-20T06:56:40.134Z,36.45
2019-06-20T06:59:08.579Z,34.92
2019-06-20T07:01:37.020Z,31.73
2019-06-20T07:04:05.473Z,34.20
2019-06-20T07:06:33.919Z,42.13
2019-06-20T07:09:02.962Z,34.73
2019-06-20T07:11:31.388Z,29.87
2019-06-20T07:13:59.847Z,29.77
2019-06-20T07:16:28.297Z,35.70
2019-06-20T07:18:56.743Z,32.25
2019-06-20T07:21:25.217Z,31.57
2019-06-20T07:23:53.737Z,31.17
2019-06-20T07:26:22.192Z,27.35
2019-06-20T07:28:51.597Z,27.10
2019-06-20T07:31:20.156Z,23.12
2019-06-20T07:33:48.610Z,22.90
2019-06-20T07:36:17.127Z,27.48
2019-06-20T07:38:45.584Z,20.15
2019-06-20T07:41:14.034Z,24.45
2019-06-20T07:43:42.483Z,18.25
2019-06-20T07:46:11.012Z,21.27
2019-06-20T07:48:39.456Z,17.45
2019-06-20T07:51:07.899Z,25.30
2019-06-20T07:53:36.348Z,21.97
2019-06-20T07:56:04.789Z,20.02
2019-06-20T07:58:33.244Z,18.40
2019-06-20T08:01:01.735Z,20.30
2019-06-20T08:03:30.364Z,15.75
2019-06-20T08:05:58.874Z,15.45
2019-06-20T08:08:27.323Z,18.67
2019-06-20T08:10:55.776Z,21.62
2019-06-20T08:13:24.230Z,14.33
2019-06-20T08:15:52.698Z,17.77
2019-06-20T08:18:21.127Z,23.87
2019-06-20T08:20:49.577Z,20.62
2019-06-20T08:23:18.020Z,19.95
2019-06-20T08:25:46.481Z,14.83
2019-06-20T08:28:14.920Z,19.55
2019-06-20T08:30:46.407Z,20.90
2019-06-20T08:33:14.862Z,19.87
2019-06-20T08:35:43.316Z,20.30
2019-06-20T08:38:11.751Z,19.30
2019-06-20T08:40:41.367Z,19.17
2019-06-20T08:43:10.200Z,19.25
2019-06-20T08:45:39.879Z,18.15
2019-06-20T08:48:08.424Z,16.25
2019-06-20T08:50:37.112Z,19.07
2019-06-20T08:53:06.012Z,17.10
2019-06-20T08:55:34.977Z,20.60
2019-06-20T08:58:05.407Z,21.35
2019-06-20T09:00:36.173Z,23.47
2019-06-20T09:03:06.413Z,15.30
2019-06-20T09:05:36.560Z,20.90
2019-06-20T09:08:06.720Z,17.90
2019-06-20T09:10:40.403Z,23.38
2019-06-20T09:13:10.403Z,20.65
2019-06-20T09:15:39.261Z,21.42
2019-06-20T09:18:08.386Z,22.95
2019-06-20T09:20:37.258Z,23.32
2019-06-20T09:23:05.854Z,22.20
2019-06-20T09:25:35.517Z,17.52
2019-06-20T09:28:05.677Z,18.40
2019-06-20T09:30:36.793Z,22.30
2019-06-20T09:33:05.652Z,22.67
2019-06-20T09:35:34.171Z,21.35
2019-06-20T09:38:03.444Z,24.23
2019-06-20T09:40:32.086Z,24.07
2019-06-20T09:43:00.556Z,26.77
2019-06-20T09:45:29.060Z,31.15
2019-06-20T09:47:58.262Z,25.92
2019-06-20T09:50:27.197Z,24.77
2019-06-20T09:52:56.613Z,26.23
2019-06-20T09:55:25.883Z,24.72
2019-06-20T09:57:58.114Z,26.33
2019-06-20T10:00:30.094Z,30.37
2019-06-20T10:02:58.601Z,27.35
2019-06-20T10:05:27.277Z,31.80
2019-06-20T10:07:56.744Z,33.83
2019-06-20T10:10:29.504Z,32.50
2019-06-20T10:12:58.612Z,36.33
2019-06-20T10:15:29.802Z,34.43
2019-06-20T10:17:58.823Z,34.67
2019-06-20T10:20:27.679Z,36.63
2019-06-20T10:22:57.452Z,36.68
2019-06-20T10:25:26.403Z,45.90
2019-06-20T10:27:54.845Z,39.58
2019-06-20T10:30:25.311Z,38.63
2019-06-20T10:32:55.457Z,48.52
2019-06-20T10:35:24.005Z,48.40
2019-06-20T10:37:53.058Z,41.10
2019-06-20T10:40:22.363Z,50.03
2019-06-20T10:42:50.804Z,42.98
2019-06-20T10:45:21.566Z,47.95
2019-06-20T10:47:50.956Z,49.35
2019-06-20T10:50:20.507Z,49.20
2019-06-20T10:52:50.065Z,47.70
2019-06-20T10:55:19.533Z,49.63
2019-06-20T10:57:49.855Z,45.38
2019-06-20T11:00:30.325Z,47.58
2019-06-20T11:02:49.388Z,46.92
2019-06-20T11:05:18.097Z,49.55
2019-06-20T11:07:47.624Z,35.28
2019-06-20T11:10:17.278Z,41.88
2019-06-20T11:12:52.317Z,33.30
2019-06-20T11:15:17.826Z,32.23
2019-06-20T11:17:48.960Z,29.95
2019-06-20T11:20:19.322Z,26.97
2019-06-20T11:22:50.207Z,21.95
2019-06-20T11:25:19.700Z,21.65
2019-06-20T11:27:48.790Z,15.68
2019-06-20T11:30:25.885Z,20.48
2019-06-20T11:32:56.351Z,22.73
2019-06-20T11:35:24.806Z,15.05
2019-06-20T11:37:53.248Z,17.82
2019-06-20T11:40:21.921Z,14.00
2019-06-20T11:42:50.355Z,16.35
2019-06-20T11:45:18.912Z,14.95
2019-06-20T11:47:47.646Z,18.17
2019-06-20T11:50:16.926Z,15.15
2019-06-20T11:52:45.853Z,21.20
2019-06-20T11:55:33.943Z,20.77
2019-06-20T11:58:02.543Z,22.17
2019-06-20T12:00:31.123Z,22.05
2019-06-20T12:03:00.973Z,22.80
2019-06-20T12:05:29.437Z,21.87
2019-06-20T12:07:58.236Z,25.32
2019-06-20T12:10:26.691Z,22.37
2019-06-20T12:12:55.412Z,24.25
2019-06-20T12:15:24.511Z,24.10
2019-06-20T12:17:53.045Z,27.77
2019-06-20T12:20:23.409Z,25.77
2019-06-20T12:22:51.845Z,25.40
2019-06-20T12:25:20.839Z,25.27
2019-06-20T12:27:49.779Z,22.10
2019-06-20T12:30:19.954Z,25.27
2019-06-20T12:32:49.363Z,22.40
2019-06-20T12:35:18.233Z,23.73
2019-06-20T12:37:47.861Z,19.82
2019-06-20T12:40:17.151Z,24.25
2019-06-20T12:42:46.744Z,18.75
2019-06-20T12:45:16.358Z,17.95
2019-06-20T12:47:46.349Z,19.35
2019-06-20T12:50:16.005Z,16.12
2019-06-20T12:52:45.725Z,16.50
2019-06-20T12:55:14.855Z,17.62
2019-06-20T12:57:44.225Z,14.85
2019-06-20T13:00:14.603Z,18.87
2019-06-20T13:02:43.730Z,16.67
2019-06-20T13:05:13.283Z,15.85
2019-06-20T13:07:42.404Z,16.27
2019-06-20T13:10:11.463Z,15.10
2019-06-20T13:12:41.439Z,15.98
2019-06-20T13:15:10.428Z,15.20
2019-06-20T13:17:39.938Z,13.00
2019-06-20T13:20:09.171Z,12.63
2019-06-20T13:22:39.079Z,10.45
2019-06-20T13:25:08.317Z,11.28
2019-06-20T13:27:39.051Z,12.45
2019-06-20T13:30:10.776Z,13.08
2019-06-20T13:32:40.195Z,11.73
2019-06-20T13:35:09.925Z,10.00
2019-06-20T13:37:39.872Z,11.95
2019-06-20T13:40:12.471Z,10.45
2019-06-20T13:42:43.879Z,9.30
2019-06-20T13:45:15.296Z,10.50
2019-06-20T13:47:43.744Z,11.08
2019-06-20T13:50:12.338Z,9.80
2019-06-20T13:52:43.548Z,14.75
2019-06-20T13:55:23.392Z,10.40
2019-06-20T13:57:51.900Z,12.30
2019-06-20T14:00:22.802Z,11.63
2019-06-20T14:02:51.765Z,10.13
2019-06-20T14:05:20.583Z,11.90
2019-06-20T14:07:53.848Z,10.30
2019-06-20T14:10:24.743Z,11.33
2019-06-20T14:12:53.333Z,11.78
2019-06-20T14:15:22.920Z,16.67
2019-06-20T14:17:51.438Z,12.23
2019-06-20T14:20:20.052Z,14.70
2019-06-20T14:22:49.434Z,11.80
2019-06-20T14:25:18.715Z,13.40
2019-06-20T14:27:48.744Z,12.10
2019-06-20T14:30:18.012Z,12.58
2019-06-20T14:32:49.325Z,11.55
2019-06-20T14:35:18.744Z,11.28
2019-06-20T14:37:47.867Z,12.13
2019-06-20T14:40:18.763Z,12.15
2019-06-20T14:42:47.847Z,10.30
2019-06-20T14:45:17.432Z,12.85
2019-06-20T14:47:45.883Z,11.95
2019-06-20T14:50:15.175Z,12.03
2019-06-20T14:52:44.555Z,11.33
2019-06-20T14:55:14.100Z,12.43
2019-06-20T14:57:44.658Z,12.98
2019-06-20T15:00:14.611Z,13.80
2019-06-20T15:02:45.104Z,11.80
2019-06-20T15:05:17.856Z,14.15
2019-06-20T15:07:47.410Z,15.98
2019-06-20T15:10:17.042Z,14.58
2019-06-20T15:12:46.418Z,13.08
2019-06-20T15:15:17.518Z,10.50
2019-06-20T15:17:48.814Z,9.50
2019-06-20T15:20:16.468Z,9.48
2019-06-20T15:22:46.789Z,10.23
2019-06-20T15:25:15.983Z,8.15
2019-06-20T15:27:47.236Z,10.28
2019-06-20T15:30:15.042Z,12.30
2019-06-20T15:32:55.327Z,9.60
2019-06-20T15:35:13.732Z,8.80
2019-06-20T15:37:42.253Z,9.90
2019-06-20T15:40:11.059Z,10.53
2019-06-20T15:42:39.566Z,7.90
2019-06-20T15:45:09.933Z,8.90
2019-06-20T15:47:38.496Z,9.98
2019-06-20T15:50:09.360Z,11.15
2019-06-20T15:52:37.953Z,11.38
2019-06-20T15:55:06.861Z,15.38
2019-06-20T15:57:35.404Z,12.82
2019-06-20T16:00:07.213Z,11.38
2019-06-20T16:02:35.648Z,10.08
2019-06-20T16:05:08.998Z,10.13
2019-06-20T16:07:37.730Z,9.85
2019-06-20T16:10:08.064Z,9.93
2019-06-20T16:12:36.514Z,10.85
2019-06-20T16:15:07.391Z,9.33
2019-06-20T16:17:37.477Z,10.30
2019-06-20T16:20:06.469Z,7.53
2019-06-20T16:22:47.325Z,7.37
2019-06-20T16:25:16.058Z,8.28
2019-06-20T16:27:44.561Z,8.05
2019-06-20T16:30:13.247Z,8.33
2019-06-20T16:32:41.762Z,9.08
2019-06-20T16:35:10.352Z,5.53
2019-06-20T16:37:38.787Z,6.72
2019-06-20T16:40:08.781Z,7.78
2019-06-20T16:42:37.217Z,5.20
2019-06-20T16:45:07.077Z,6.67
2019-06-20T16:47:35.508Z,4.97
2019-06-20T16:50:06.079Z,6.90
2019-06-20T16:52:34.671Z,6.28
2019-06-20T16:55:03.465Z,7.33
2019-06-20T16:57:31.997Z,5.20
2019-06-20T17:00:00.506Z,5.67
2019-06-20T17:02:29.042Z,6.83
2019-06-20T17:04:57.620Z,4.60
2019-06-20T17:07:26.092Z,5.22
2019-06-20T17:09:54.610Z,4.65
2019-06-20T17:12:23.116Z,5.83
2019-06-20T17:14:51.564Z,5.40
2019-06-20T17:17:20.074Z,7.25
2019-06-20T17:19:48.603Z,7.65
2019-06-20T17:22:17.055Z,6.28
2019-06-20T17:24:45.491Z,5.53
2019-06-20T17:27:13.927Z,7.72
2019-06-20T17:29:42.393Z,8.60
2019-06-20T17:32:10.915Z,6.42
2019-06-20T17:34:39.367Z,5.22
2019-06-20T17:37:07.817Z,5.78
2019-06-20T17:39:36.357Z,6.97
2019-06-20T17:42:04.841Z,5.55
2019-06-20T17:44:33.339Z,5.40
2019-06-20T17:47:01.771Z,7.92
2019-06-20T17:49:30.721Z,4.92
2019-06-20T17:51:59.227Z,5.40
2019-06-20T17:54:27.670Z,4.97
2019-06-20T17:56:56.103Z,5.90
2019-06-20T17:59:24.549Z,6.83
2019-06-20T18:01:53.737Z,8.33
2019-06-20T18:04:22.288Z,7.28
2019-06-20T18:06:50.740Z,11.28
2019-06-20T18:09:19.187Z,11.35
2019-06-20T18:11:48.301Z,8.85
2019-06-20T18:14:22.034Z,6.15
2019-06-20T18:16:50.559Z,7.15
2019-06-20T18:19:19.115Z,6.80
2019-06-20T18:21:47.554Z,4.37
2019-06-20T18:24:16.002Z,5.62
2019-06-20T18:26:44.519Z,7.12
2019-06-20T18:29:13.046Z,5.10
2019-06-20T18:31:42.475Z,7.60
2019-06-20T18:34:11.103Z,9.05
2019-06-20T18:36:39.618Z,8.95
2019-06-20T18:39:08.900Z,6.72
2019-06-20T18:41:37.360Z,7.40
2019-06-20T18:44:05.816Z,7.42
2019-06-20T18:46:34.323Z,6.20
2019-06-20T18:49:02.768Z,7.75
2019-06-20T18:51:31.289Z,6.25
2019-06-20T18:53:59.853Z,7.70
2019-06-20T18:56:28.358Z,5.83
2019-06-20T18:58:58.350Z,8.38
2019-06-20T19:01:26.801Z,5.40
2019-06-20T19:03:55.261Z,8.75
2019-06-20T19:06:35.627Z,8.85
2019-06-20T19:08:53.953Z,8.15
2019-06-20T19:11:22.478Z,5.78
2019-06-20T19:13:50.946Z,6.83
2019-06-20T19:16:19.433Z,7.78
2019-06-20T19:18:47.923Z,10.55
2019-06-20T19:21:16.428Z,7.15
2019-06-20T19:23:47.011Z,7.92
2019-06-20T19:26:15.556Z,7.22
2019-06-20T19:28:44.061Z,7.67
2019-06-20T19:31:12.532Z,12.18
2019-06-20T19:33:40.967Z,6.97
2019-06-20T19:36:09.453Z,11.28
2019-06-20T19:38:37.961Z,8.43
2019-06-20T19:41:06.408Z,9.65
2019-06-20T19:43:37.404Z,9.58
2019-06-20T19:46:05.907Z,9.63
2019-06-20T19:48:36.674Z,10.75
2019-06-20T19:51:04.963Z,12.28
2019-06-20T19:53:33.470Z,6.45
2019-06-20T19:56:02.136Z,8.53
2019-06-20T19:58:30.593Z,5.45
2019-06-20T20:00:59.035Z,8.18
2019-06-20T20:03:27.476Z,10.63
2019-06-20T20:05:58.384Z,8.70
2019-06-20T20:08:26.996Z,7.53
2019-06-20T20:10:55.454Z,10.95
2019-06-20T20:13:25.843Z,8.05
2019-06-20T20:15:54.339Z,8.30
2019-06-20T20:18:22.915Z,7.87
2019-06-20T20:20:51.599Z,7.95
2019-06-20T20:23:20.051Z,6.67
2019-06-20T20:25:48.623Z,5.92
2019-06-20T20:28:17.066Z,9.18
2019-06-20T20:30:45.883Z,16.73
2019-06-20T20:33:14.340Z,6.83
2019-06-20T20:35:44.603Z,8.30
2019-06-20T20:38:14.608Z,12.13
2019-06-20T20:40:43.427Z,7.35
2019-06-20T20:43:11.942Z,8.53
2019-06-20T20:45:40.647Z,10.15
2019-06-20T20:48:11.404Z,10.10
2019-06-20T20:50:39.853Z,8.38
2019-06-20T20:53:08.363Z,8.73
2019-06-20T20:55:36.803Z,11.83
2019-06-20T20:58:05.330Z,9.45
2019-06-20T21:00:42.348Z,8.28
2019-06-20T21:03:10.783Z,8.18
2019-06-20T21:05:50.983Z,10.88
2019-06-20T21:08:09.411Z,8.03
2019-06-20T21:10:37.869Z,7.28
2019-06-20T21:13:06.307Z,8.43
2019-06-20T21:15:34.751Z,14.60
2019-06-20T21:18:04.037Z,15.88
2019-06-20T21:20:32.552Z,7.55
2019-06-20T21:23:01.008Z,9.60
2019-06-20T21:25:32.147Z,13.38
2019-06-20T21:27:59.644Z,10.85
2019-06-20T21:30:28.084Z,9.95
2019-06-20T21:32:56.547Z,10.93
2019-06-20T21:35:24.969Z,9.00
2019-06-20T21:37:53.510Z,11.38
2019-06-20T21:40:25.726Z,10.23
2019-06-20T21:42:54.246Z,9.78
2019-06-20T21:45:22.845Z,9.35
2019-06-20T21:47:51.387Z,11.63
2019-06-20T21:50:21.087Z,10.15
2019-06-20T21:52:49.519Z,14.15
2019-06-20T21:55:19.287Z,13.13
2019-06-20T21:57:47.723Z,10.88
2019-06-20T22:00:28.293Z,10.38
2019-06-20T22:02:56.884Z,11.15
2019-06-20T22:05:25.449Z,9.15
2019-06-20T22:07:53.881Z,7.87
2019-06-20T22:10:22.865Z,14.00
2019-06-20T22:12:51.325Z,17.48
2019-06-20T22:15:22.982Z,10.72
2019-06-20T22:17:55.714Z,8.80
2019-06-20T22:20:24.643Z,8.88
2019-06-20T22:22:56.304Z,11.15
2019-06-20T22:25:24.885Z,13.65
2019-06-20T22:27:56.480Z,11.45
2019-06-20T22:30:42.540Z,11.63
2019-06-20T22:33:11.059Z,12.28
2019-06-20T22:35:39.504Z,12.63
2019-06-20T22:38:07.968Z,12.98
2019-06-20T22:40:36.730Z,10.68
2019-06-20T22:43:05.365Z,11.85
2019-06-20T22:45:33.993Z,10.43
2019-06-20T22:56:16.052Z,13.10
2019-06-20T22:58:44.493Z,14.38
2019-06-20T23:01:13.010Z,12.88
2019-06-20T23:03:41.564Z,12.23
2019-06-20T23:08:45.960Z,11.12
2019-06-20T23:11:14.415Z,9.58
2019-06-20T23:13:43.019Z,11.03
2019-06-20T23:16:11.484Z,10.60
2019-06-20T23:18:39.951Z,11.03
2019-06-20T23:21:08.385Z,15.72
2019-06-20T23:23:36.840Z,13.68
2019-06-20T23:26:06.972Z,13.93
2019-06-20T23:28:35.409Z,14.60
2019-06-20T23:31:04.258Z,17.62
2019-06-20T23:33:32.814Z,15.88
2019-06-20T23:36:01.253Z,12.80
2019-06-20T23:38:29.776Z,15.95
2019-06-20T23:40:58.245Z,15.08
2019-06-20T23:43:26.752Z,10.35
2019-06-20T23:45:55.213Z,14.73
2019-06-20T23:48:23.738Z,12.85
2019-06-20T23:50:54.179Z,11.90
2019-06-20T23:53:23.995Z,12.95
2019-06-20T23:55:52.634Z,16.75
2019-06-20T23:58:21.172Z,15.83
